sensor_id;sensor_type;location;lat;lon;timestamp;temperature;humidity
37232;DHT22;23125;48.156;15.954;2023-06-22T00:01:59;24.60;55.40
37232;DHT22;23125;48.156;15.954;2023-06-22T00:04:26;24.50;55.50
37232;DHT22;23125;48.156;15.954;2023-06-22T00:06:52;24.50;55.90
37232;DHT22;23125;48.156;15.954;2023-06-22T00:09:18;24.30;55.30
37232;DHT22;23125;48.156;15.954;2023-06-22T00:11:44;24.30;55.50
37232;DHT22;23125;48.156;15.954;2023-06-22T00:14:09;24.30;55.70
37232;DHT22;23125;48.156;15.954;2023-06-22T00:16:35;24.20;55.90
37232;DHT22;23125;48.156;15.954;2023-06-22T00:19:01;24.20;56.00
37232;DHT22;23125;48.156;15.954;2023-06-22T00:21:28;24.20;56.10
37232;DHT22;23125;48.156;15.954;2023-06-22T00:23:53;24.10;56.20
37232;DHT22;23125;48.156;15.954;2023-06-22T00:26:20;24.10;56.20
37232;DHT22;23125;48.156;15.954;2023-06-22T00:28:47;24.10;56.20
37232;DHT22;23125;48.156;15.954;2023-06-22T00:31:13;24.10;56.20
37232;DHT22;23125;48.156;15.954;2023-06-22T00:33:39;24.00;56.30
37232;DHT22;23125;48.156;15.954;2023-06-22T00:36:05;24.00;56.40
37232;DHT22;23125;48.156;15.954;2023-06-22T00:38:34;24.00;56.30
37232;DHT22;23125;48.156;15.954;2023-06-22T00:41:00;24.00;56.30
37232;DHT22;23125;48.156;15.954;2023-06-22T00:43:25;23.90;56.40
37232;DHT22;23125;48.156;15.954;2023-06-22T00:45:51;23.90;56.30
37232;DHT22;23125;48.156;15.954;2023-06-22T00:48:18;23.90;56.40
37232;DHT22;23125;48.156;15.954;2023-06-22T00:50:44;23.90;56.40
37232;DHT22;23125;48.156;15.954;2023-06-22T00:53:10;23.80;56.30
37232;DHT22;23125;48.156;15.954;2023-06-22T00:55:44;23.80;56.40
37232;DHT22;23125;48.156;15.954;2023-06-22T00:58:11;23.70;56.40
37232;DHT22;23125;48.156;15.954;2023-06-22T01:00:38;23.70;56.50
37232;DHT22;23125;48.156;15.954;2023-06-22T01:03:05;23.70;56.60
37232;DHT22;23125;48.156;15.954;2023-06-22T01:05:35;23.50;56.50
37232;DHT22;23125;48.156;15.954;2023-06-22T01:10:55;23.30;56.50
37232;DHT22;23125;48.156;15.954;2023-06-22T01:16:05;23.30;57.20
37232;DHT22;23125;48.156;15.954;2023-06-22T01:18:35;23.30;57.40
37232;DHT22;23125;48.156;15.954;2023-06-22T01:21:04;23.20;57.50
37232;DHT22;23125;48.156;15.954;2023-06-22T01:26:43;23.20;57.70
37232;DHT22;23125;48.156;15.954;2023-06-22T01:29:13;23.20;57.50
37232;DHT22;23125;48.156;15.954;2023-06-22T01:31:41;23.20;57.50
37232;DHT22;23125;48.156;15.954;2023-06-22T01:34:10;23.10;57.60
37232;DHT22;23125;48.156;15.954;2023-06-22T01:36:38;23.10;57.50
37232;DHT22;23125;48.156;15.954;2023-06-22T01:39:05;23.10;57.60
37232;DHT22;23125;48.156;15.954;2023-06-22T01:41:36;23.00;57.70
37232;DHT22;23125;48.156;15.954;2023-06-22T01:44:05;23.00;57.80
37232;DHT22;23125;48.156;15.954;2023-06-22T01:46:36;23.00;58.00
37232;DHT22;23125;48.156;15.954;2023-06-22T01:49:03;23.00;58.00
37232;DHT22;23125;48.156;15.954;2023-06-22T01:51:30;23.00;58.00
37232;DHT22;23125;48.156;15.954;2023-06-22T01:53:56;23.00;57.90
37232;DHT22;23125;48.156;15.954;2023-06-22T01:56:22;23.00;58.00
37232;DHT22;23125;48.156;15.954;2023-06-22T01:59:00;23.00;58.10
37232;DHT22;23125;48.156;15.954;2023-06-22T02:01:33;23.00;58.10
37232;DHT22;23125;48.156;15.954;2023-06-22T02:04:06;22.90;58.00
37232;DHT22;23125;48.156;15.954;2023-06-22T02:06:38;22.90;58.10
37232;DHT22;23125;48.156;15.954;2023-06-22T02:09:12;22.90;58.00
37232;DHT22;23125;48.156;15.954;2023-06-22T02:11:41;22.80;58.10
37232;DHT22;23125;48.156;15.954;2023-06-22T02:14:08;22.80;58.10
37232;DHT22;23125;48.156;15.954;2023-06-22T02:16:35;22.80;58.20
37232;DHT22;23125;48.156;15.954;2023-06-22T02:19:03;22.80;58.30
37232;DHT22;23125;48.156;15.954;2023-06-22T02:21:30;22.70;58.40
37232;DHT22;23125;48.156;15.954;2023-06-22T02:23:56;22.60;58.40
37232;DHT22;23125;48.156;15.954;2023-06-22T02:26:24;22.60;58.40
37232;DHT22;23125;48.156;15.954;2023-06-22T02:28:51;22.60;58.50
37232;DHT22;23125;48.156;15.954;2023-06-22T02:31:17;22.60;58.70
37232;DHT22;23125;48.156;15.954;2023-06-22T02:33:44;22.50;58.70
37232;DHT22;23125;48.156;15.954;2023-06-22T02:36:11;22.50;58.80
37232;DHT22;23125;48.156;15.954;2023-06-22T02:38:42;22.50;58.90
37232;DHT22;23125;48.156;15.954;2023-06-22T02:41:16;22.50;58.90
37232;DHT22;23125;48.156;15.954;2023-06-22T02:43:48;22.50;59.00
37232;DHT22;23125;48.156;15.954;2023-06-22T02:46:14;22.40;59.00
37232;DHT22;23125;48.156;15.954;2023-06-22T02:48:40;22.50;59.10
37232;DHT22;23125;48.156;15.954;2023-06-22T02:51:06;22.50;59.00
37232;DHT22;23125;48.156;15.954;2023-06-22T02:53:32;22.50;59.00
37232;DHT22;23125;48.156;15.954;2023-06-22T02:55:58;22.50;59.00
37232;DHT22;23125;48.156;15.954;2023-06-22T02:58:27;22.40;59.00
37232;DHT22;23125;48.156;15.954;2023-06-22T03:00:53;22.40;59.10
37232;DHT22;23125;48.156;15.954;2023-06-22T03:03:19;22.40;59.20
37232;DHT22;23125;48.156;15.954;2023-06-22T03:05:45;22.40;59.20
37232;DHT22;23125;48.156;15.954;2023-06-22T03:08:11;22.40;59.40
37232;DHT22;23125;48.156;15.954;2023-06-22T03:10:37;22.40;59.40
37232;DHT22;23125;48.156;15.954;2023-06-22T03:13:04;22.40;59.40
37232;DHT22;23125;48.156;15.954;2023-06-22T03:15:30;22.40;59.40
37232;DHT22;23125;48.156;15.954;2023-06-22T03:17:57;22.50;59.50
37232;DHT22;23125;48.156;15.954;2023-06-22T03:20:22;22.40;59.40
37232;DHT22;23125;48.156;15.954;2023-06-22T03:22:49;22.40;59.40
37232;DHT22;23125;48.156;15.954;2023-06-22T03:25:15;22.40;59.60
37232;DHT22;23125;48.156;15.954;2023-06-22T03:27:41;22.40;59.70
37232;DHT22;23125;48.156;15.954;2023-06-22T03:30:09;22.40;59.60
37232;DHT22;23125;48.156;15.954;2023-06-22T03:32:35;22.40;59.70
37232;DHT22;23125;48.156;15.954;2023-06-22T03:35:02;22.40;59.60
37232;DHT22;23125;48.156;15.954;2023-06-22T03:37:28;22.50;59.70
37232;DHT22;23125;48.156;15.954;2023-06-22T03:39:54;22.50;59.80
37232;DHT22;23125;48.156;15.954;2023-06-22T03:42:21;22.50;59.80
37232;DHT22;23125;48.156;15.954;2023-06-22T03:44:47;22.60;59.90
37232;DHT22;23125;48.156;15.954;2023-06-22T03:47:13;22.60;59.90
37232;DHT22;23125;48.156;15.954;2023-06-22T03:49:39;22.60;60.00
37232;DHT22;23125;48.156;15.954;2023-06-22T03:52:05;22.70;60.00
37232;DHT22;23125;48.156;15.954;2023-06-22T03:54:31;22.70;60.00
37232;DHT22;23125;48.156;15.954;2023-06-22T03:56:58;22.70;60.00
37232;DHT22;23125;48.156;15.954;2023-06-22T03:59:24;22.80;60.10
37232;DHT22;23125;48.156;15.954;2023-06-22T04:01:50;22.80;60.30
37232;DHT22;23125;48.156;15.954;2023-06-22T04:04:19;22.90;60.40
37232;DHT22;23125;48.156;15.954;2023-06-22T04:06:46;22.90;60.40
37232;DHT22;23125;48.156;15.954;2023-06-22T04:09:12;23.00;60.40
37232;DHT22;23125;48.156;15.954;2023-06-22T04:11:38;23.10;60.50
37232;DHT22;23125;48.156;15.954;2023-06-22T04:14:04;23.10;60.60
37232;DHT22;23125;48.156;15.954;2023-06-22T04:16:30;23.20;60.60
37232;DHT22;23125;48.156;15.954;2023-06-22T04:18:56;23.30;60.60
37232;DHT22;23125;48.156;15.954;2023-06-22T04:21:21;23.40;60.70
37232;DHT22;23125;48.156;15.954;2023-06-22T04:23:47;23.50;60.60
37232;DHT22;23125;48.156;15.954;2023-06-22T04:26:14;23.50;60.40
37232;DHT22;23125;48.156;15.954;2023-06-22T04:28:40;23.60;60.40
37232;DHT22;23125;48.156;15.954;2023-06-22T04:31:06;23.70;60.50
37232;DHT22;23125;48.156;15.954;2023-06-22T04:33:32;23.80;60.50
37232;DHT22;23125;48.156;15.954;2023-06-22T04:35:59;23.90;60.40
37232;DHT22;23125;48.156;15.954;2023-06-22T04:38:27;24.00;60.40
37232;DHT22;23125;48.156;15.954;2023-06-22T04:40:53;24.00;60.20
37232;DHT22;23125;48.156;15.954;2023-06-22T04:43:20;24.10;60.20
37232;DHT22;23125;48.156;15.954;2023-06-22T04:45:45;24.20;60.40
37232;DHT22;23125;48.156;15.954;2023-06-22T04:48:11;24.30;60.40
37232;DHT22;23125;48.156;15.954;2023-06-22T04:50:42;24.40;60.30
37232;DHT22;23125;48.156;15.954;2023-06-22T04:53:08;24.40;60.10
37232;DHT22;23125;48.156;15.954;2023-06-22T04:55:35;24.50;60.10
37232;DHT22;23125;48.156;15.954;2023-06-22T04:58:03;24.60;60.30
37232;DHT22;23125;48.156;15.954;2023-06-22T05:00:31;24.80;60.30
37232;DHT22;23125;48.156;15.954;2023-06-22T05:02:57;24.90;60.40
37232;DHT22;23125;48.156;15.954;2023-06-22T05:05:26;25.00;60.30
37232;DHT22;23125;48.156;15.954;2023-06-22T05:07:52;25.20;60.70
37232;DHT22;23125;48.156;15.954;2023-06-22T05:10:19;25.60;61.50
37232;DHT22;23125;48.156;15.954;2023-06-22T05:12:46;25.90;61.70
37232;DHT22;23125;48.156;15.954;2023-06-22T05:15:12;26.50;61.90
37232;DHT22;23125;48.156;15.954;2023-06-22T05:17:38;27.00;61.60
37232;DHT22;23125;48.156;15.954;2023-06-22T05:20:12;27.40;61.20
37232;DHT22;23125;48.156;15.954;2023-06-22T05:22:41;28.00;60.80
37232;DHT22;23125;48.156;15.954;2023-06-22T05:25:10;28.60;60.70
37232;DHT22;23125;48.156;15.954;2023-06-22T05:27:37;29.30;60.10
37232;DHT22;23125;48.156;15.954;2023-06-22T05:30:09;30.00;59.40
37232;DHT22;23125;48.156;15.954;2023-06-22T05:32:36;30.60;58.40
37232;DHT22;23125;48.156;15.954;2023-06-22T05:35:03;31.20;57.50
37232;DHT22;23125;48.156;15.954;2023-06-22T05:37:29;31.70;56.40
37232;DHT22;23125;48.156;15.954;2023-06-22T05:39:56;32.30;55.60
37232;DHT22;23125;48.156;15.954;2023-06-22T05:42:23;32.80;54.90
37232;DHT22;23125;48.156;15.954;2023-06-22T05:44:52;33.30;54.10
37232;DHT22;23125;48.156;15.954;2023-06-22T05:47:19;33.80;53.00
37232;DHT22;23125;48.156;15.954;2023-06-22T05:49:44;34.30;52.20
37232;DHT22;23125;48.156;15.954;2023-06-22T05:52:11;34.80;51.30
37232;DHT22;23125;48.156;15.954;2023-06-22T05:54:37;35.20;50.50
37232;DHT22;23125;48.156;15.954;2023-06-22T05:57:04;35.60;49.50
37232;DHT22;23125;48.156;15.954;2023-06-22T05:59:30;36.10;48.90
37232;DHT22;23125;48.156;15.954;2023-06-22T06:01:56;36.50;47.90
37232;DHT22;23125;48.156;15.954;2023-06-22T06:04:22;36.80;47.20
37232;DHT22;23125;48.156;15.954;2023-06-22T06:06:48;37.20;46.20
37232;DHT22;23125;48.156;15.954;2023-06-22T06:09:14;37.50;45.10
37232;DHT22;23125;48.156;15.954;2023-06-22T06:11:40;37.70;44.10
37232;DHT22;23125;48.156;15.954;2023-06-22T06:14:06;38.00;43.10
37232;DHT22;23125;48.156;15.954;2023-06-22T06:16:32;38.20;42.30
37232;DHT22;23125;48.156;15.954;2023-06-22T06:18:58;38.50;42.30
37232;DHT22;23125;48.156;15.954;2023-06-22T06:21:24;38.80;41.50
37232;DHT22;23125;48.156;15.954;2023-06-22T06:23:50;39.10;40.50
37232;DHT22;23125;48.156;15.954;2023-06-22T06:26:16;39.30;39.70
37232;DHT22;23125;48.156;15.954;2023-06-22T06:28:54;39.50;39.40
37232;DHT22;23125;48.156;15.954;2023-06-22T06:31:20;39.80;38.80
37232;DHT22;23125;48.156;15.954;2023-06-22T06:33:46;39.90;38.40
37232;DHT22;23125;48.156;15.954;2023-06-22T06:36:12;40.30;38.30
37232;DHT22;23125;48.156;15.954;2023-06-22T06:38:38;40.60;38.00
37232;DHT22;23125;48.156;15.954;2023-06-22T06:41:03;40.90;37.30
37232;DHT22;23125;48.156;15.954;2023-06-22T06:43:29;41.10;36.90
37232;DHT22;23125;48.156;15.954;2023-06-22T06:45:55;41.30;36.60
37232;DHT22;23125;48.156;15.954;2023-06-22T06:48:21;41.70;35.60
37232;DHT22;23125;48.156;15.954;2023-06-22T06:50:47;41.70;35.00
37232;DHT22;23125;48.156;15.954;2023-06-22T06:53:13;41.90;35.00
37232;DHT22;23125;48.156;15.954;2023-06-22T06:55:38;42.00;34.40
37232;DHT22;23125;48.156;15.954;2023-06-22T06:58:04;42.20;33.90
37232;DHT22;23125;48.156;15.954;2023-06-22T07:00:33;42.20;33.40
37232;DHT22;23125;48.156;15.954;2023-06-22T07:02:59;42.10;33.10
37232;DHT22;23125;48.156;15.954;2023-06-22T07:05:25;42.30;32.70
37232;DHT22;23125;48.156;15.954;2023-06-22T07:07:50;42.20;32.50
37232;DHT22;23125;48.156;15.954;2023-06-22T07:10:16;42.20;32.40
37232;DHT22;23125;48.156;15.954;2023-06-22T07:12:42;42.30;33.00
37232;DHT22;23125;48.156;15.954;2023-06-22T07:15:09;42.20;31.90
37232;DHT22;23125;48.156;15.954;2023-06-22T07:17:37;42.30;32.20
37232;DHT22;23125;48.156;15.954;2023-06-22T07:20:06;42.40;32.10
37232;DHT22;23125;48.156;15.954;2023-06-22T07:22:36;42.70;32.50
37232;DHT22;23125;48.156;15.954;2023-06-22T07:25:02;43.00;32.30
37232;DHT22;23125;48.156;15.954;2023-06-22T07:27:56;43.30;31.60
37232;DHT22;23125;48.156;15.954;2023-06-22T07:30:22;43.40;31.60
37232;DHT22;23125;48.156;15.954;2023-06-22T07:32:48;43.50;31.00
37232;DHT22;23125;48.156;15.954;2023-06-22T07:35:14;43.40;30.50
37232;DHT22;23125;48.156;15.954;2023-06-22T07:37:42;43.30;30.30
37232;DHT22;23125;48.156;15.954;2023-06-22T07:40:09;43.30;30.50
37232;DHT22;23125;48.156;15.954;2023-06-22T07:42:35;43.30;30.60
37232;DHT22;23125;48.156;15.954;2023-06-22T07:45:05;43.60;30.70
37232;DHT22;23125;48.156;15.954;2023-06-22T07:47:34;43.70;30.10
37232;DHT22;23125;48.156;15.954;2023-06-22T07:50:02;43.90;29.80
37232;DHT22;23125;48.156;15.954;2023-06-22T07:52:29;43.90;29.20
37232;DHT22;23125;48.156;15.954;2023-06-22T07:54:55;43.90;28.90
37232;DHT22;23125;48.156;15.954;2023-06-22T07:57:21;44.00;29.10
37232;DHT22;23125;48.156;15.954;2023-06-22T07:59:47;44.00;28.80
37232;DHT22;23125;48.156;15.954;2023-06-22T08:02:13;44.10;28.80
37232;DHT22;23125;48.156;15.954;2023-06-22T08:04:39;44.20;28.80
37232;DHT22;23125;48.156;15.954;2023-06-22T08:07:07;44.30;28.80
37232;DHT22;23125;48.156;15.954;2023-06-22T08:09:33;44.40;28.40
37232;DHT22;23125;48.156;15.954;2023-06-22T08:11:59;44.50;27.80
37232;DHT22;23125;48.156;15.954;2023-06-22T08:14:27;44.40;27.50
37232;DHT22;23125;48.156;15.954;2023-06-22T08:16:53;44.20;27.20
37232;DHT22;23125;48.156;15.954;2023-06-22T08:19:18;44.00;27.20
37232;DHT22;23125;48.156;15.954;2023-06-22T08:21:44;43.80;27.30
37232;DHT22;23125;48.156;15.954;2023-06-22T08:24:10;43.70;27.50
37232;DHT22;23125;48.156;15.954;2023-06-22T08:26:36;43.70;27.30
37232;DHT22;23125;48.156;15.954;2023-06-22T08:29:06;43.70;27.30
37232;DHT22;23125;48.156;15.954;2023-06-22T08:31:32;43.70;27.50
37232;DHT22;23125;48.156;15.954;2023-06-22T08:34:00;43.70;27.40
37232;DHT22;23125;48.156;15.954;2023-06-22T08:36:25;43.70;27.50
37232;DHT22;23125;48.156;15.954;2023-06-22T08:38:54;43.80;27.10
37232;DHT22;23125;48.156;15.954;2023-06-22T08:41:27;43.60;26.90
37232;DHT22;23125;48.156;15.954;2023-06-22T08:43:53;43.50;27.00
37232;DHT22;23125;48.156;15.954;2023-06-22T08:46:19;43.30;27.10
37232;DHT22;23125;48.156;15.954;2023-06-22T08:48:49;43.20;27.30
37232;DHT22;23125;48.156;15.954;2023-06-22T08:51:16;43.20;27.90
37232;DHT22;23125;48.156;15.954;2023-06-22T08:53:43;43.20;27.60
37232;DHT22;23125;48.156;15.954;2023-06-22T08:56:10;43.20;27.90
37232;DHT22;23125;48.156;15.954;2023-06-22T08:58:36;43.40;27.90
37232;DHT22;23125;48.156;15.954;2023-06-22T09:01:02;43.30;27.90
37232;DHT22;23125;48.156;15.954;2023-06-22T09:03:28;43.30;27.80
37232;DHT22;23125;48.156;15.954;2023-06-22T09:05:54;43.20;27.70
37232;DHT22;23125;48.156;15.954;2023-06-22T09:08:20;43.00;27.50
37232;DHT22;23125;48.156;15.954;2023-06-22T09:10:46;42.90;27.70
37232;DHT22;23125;48.156;15.954;2023-06-22T09:13:11;42.90;28.20
37232;DHT22;23125;48.156;15.954;2023-06-22T09:15:37;43.00;28.20
37232;DHT22;23125;48.156;15.954;2023-06-22T09:18:03;43.00;28.10
37232;DHT22;23125;48.156;15.954;2023-06-22T09:20:29;43.00;28.20
37232;DHT22;23125;48.156;15.954;2023-06-22T09:22:55;43.00;28.30
37232;DHT22;23125;48.156;15.954;2023-06-22T09:25:21;43.00;28.20
37232;DHT22;23125;48.156;15.954;2023-06-22T09:27:48;42.90;28.30
37232;DHT22;23125;48.156;15.954;2023-06-22T09:30:13;43.00;28.60
37232;DHT22;23125;48.156;15.954;2023-06-22T09:32:39;43.10;28.40
37232;DHT22;23125;48.156;15.954;2023-06-22T09:35:06;43.30;28.60
37232;DHT22;23125;48.156;15.954;2023-06-22T09:37:33;43.30;28.50
37232;DHT22;23125;48.156;15.954;2023-06-22T09:40:00;43.30;28.30
37232;DHT22;23125;48.156;15.954;2023-06-22T09:42:25;43.30;28.40
37232;DHT22;23125;48.156;15.954;2023-06-22T09:44:52;43.30;28.30
37232;DHT22;23125;48.156;15.954;2023-06-22T09:47:17;43.20;28.30
37232;DHT22;23125;48.156;15.954;2023-06-22T09:49:43;43.00;28.10
37232;DHT22;23125;48.156;15.954;2023-06-22T09:52:09;42.70;28.30
37232;DHT22;23125;48.156;15.954;2023-06-22T09:54:36;42.60;28.60
37232;DHT22;23125;48.156;15.954;2023-06-22T09:57:02;42.40;28.70
37232;DHT22;23125;48.156;15.954;2023-06-22T09:59:28;42.30;28.80
37232;DHT22;23125;48.156;15.954;2023-06-22T10:01:54;42.10;29.00
37232;DHT22;23125;48.156;15.954;2023-06-22T10:04:20;41.80;28.90
37232;DHT22;23125;48.156;15.954;2023-06-22T10:06:46;41.40;28.90
37232;DHT22;23125;48.156;15.954;2023-06-22T10:09:11;40.80;29.00
37232;DHT22;23125;48.156;15.954;2023-06-22T10:11:37;40.30;29.80
37232;DHT22;23125;48.156;15.954;2023-06-22T10:14:03;40.00;30.20
37232;DHT22;23125;48.156;15.954;2023-06-22T10:16:32;39.60;30.70
37232;DHT22;23125;48.156;15.954;2023-06-22T10:18:59;39.40;31.40
37232;DHT22;23125;48.156;15.954;2023-06-22T10:21:25;39.20;31.90
37232;DHT22;23125;48.156;15.954;2023-06-22T10:23:53;39.00;32.10
37232;DHT22;23125;48.156;15.954;2023-06-22T10:26:19;38.80;32.30
37232;DHT22;23125;48.156;15.954;2023-06-22T10:28:44;38.60;32.60
37232;DHT22;23125;48.156;15.954;2023-06-22T10:31:10;38.30;32.50
37232;DHT22;23125;48.156;15.954;2023-06-22T10:33:36;38.00;33.00
37232;DHT22;23125;48.156;15.954;2023-06-22T10:36:02;37.80;33.70
37232;DHT22;23125;48.156;15.954;2023-06-22T10:38:28;37.50;34.20
37232;DHT22;23125;48.156;15.954;2023-06-22T10:40:53;37.30;34.40
37232;DHT22;23125;48.156;15.954;2023-06-22T10:43:19;37.30;35.10
37232;DHT22;23125;48.156;15.954;2023-06-22T10:45:45;37.20;35.40
37232;DHT22;23125;48.156;15.954;2023-06-22T10:48:11;37.00;35.40
37232;DHT22;23125;48.156;15.954;2023-06-22T10:50:37;36.80;35.50
37232;DHT22;23125;48.156;15.954;2023-06-22T10:53:04;36.70;36.00
37232;DHT22;23125;48.156;15.954;2023-06-22T10:55:30;36.60;36.40
37232;DHT22;23125;48.156;15.954;2023-06-22T10:57:56;36.50;36.70
37232;DHT22;23125;48.156;15.954;2023-06-22T11:00:21;36.40;36.60
37232;DHT22;23125;48.156;15.954;2023-06-22T11:02:47;36.20;36.80
37232;DHT22;23125;48.156;15.954;2023-06-22T11:05:13;36.10;37.10
37232;DHT22;23125;48.156;15.954;2023-06-22T11:07:43;36.10;37.40
37232;DHT22;23125;48.156;15.954;2023-06-22T11:10:09;35.90;37.60
37232;DHT22;23125;48.156;15.954;2023-06-22T11:12:35;35.80;37.80
37232;DHT22;23125;48.156;15.954;2023-06-22T11:15:01;35.70;38.10
37232;DHT22;23125;48.156;15.954;2023-06-22T11:17:27;35.80;38.30
37232;DHT22;23125;48.156;15.954;2023-06-22T11:19:53;35.80;38.30
37232;DHT22;23125;48.156;15.954;2023-06-22T11:22:19;35.70;38.50
37232;DHT22;23125;48.156;15.954;2023-06-22T11:24:45;35.70;38.60
37232;DHT22;23125;48.156;15.954;2023-06-22T11:27:10;35.70;38.50
37232;DHT22;23125;48.156;15.954;2023-06-22T11:29:36;35.70;38.40
37232;DHT22;23125;48.156;15.954;2023-06-22T11:32:05;35.60;38.40
37232;DHT22;23125;48.156;15.954;2023-06-22T11:34:31;35.40;38.30
37232;DHT22;23125;48.156;15.954;2023-06-22T11:36:57;35.30;38.80
37232;DHT22;23125;48.156;15.954;2023-06-22T11:39:23;35.30;38.90
37232;DHT22;23125;48.156;15.954;2023-06-22T11:41:48;35.20;39.10
37232;DHT22;23125;48.156;15.954;2023-06-22T11:44:14;35.10;39.30
37232;DHT22;23125;48.156;15.954;2023-06-22T11:46:40;35.10;39.40
37232;DHT22;23125;48.156;15.954;2023-06-22T11:49:06;35.10;39.60
37232;DHT22;23125;48.156;15.954;2023-06-22T11:51:31;35.10;39.90
37232;DHT22;23125;48.156;15.954;2023-06-22T11:53:57;35.10;39.80
37232;DHT22;23125;48.156;15.954;2023-06-22T11:56:24;35.10;39.90
37232;DHT22;23125;48.156;15.954;2023-06-22T11:58:50;35.10;39.80
37232;DHT22;23125;48.156;15.954;2023-06-22T12:01:16;35.10;39.60
37232;DHT22;23125;48.156;15.954;2023-06-22T12:03:42;35.00;39.70
37232;DHT22;23125;48.156;15.954;2023-06-22T12:06:09;35.00;39.80
37232;DHT22;23125;48.156;15.954;2023-06-22T12:08:35;34.90;39.90
37232;DHT22;23125;48.156;15.954;2023-06-22T12:11:01;34.80;40.10
37232;DHT22;23125;48.156;15.954;2023-06-22T12:13:27;34.80;40.10
37232;DHT22;23125;48.156;15.954;2023-06-22T12:15:53;34.80;40.30
37232;DHT22;23125;48.156;15.954;2023-06-22T12:18:19;34.80;40.70
37232;DHT22;23125;48.156;15.954;2023-06-22T12:20:47;34.70;40.70
37232;DHT22;23125;48.156;15.954;2023-06-22T12:23:14;34.70;40.70
37232;DHT22;23125;48.156;15.954;2023-06-22T12:25:40;34.70;40.70
37232;DHT22;23125;48.156;15.954;2023-06-22T12:28:06;34.70;40.90
37232;DHT22;23125;48.156;15.954;2023-06-22T12:30:34;34.80;41.00
37232;DHT22;23125;48.156;15.954;2023-06-22T12:33:00;34.70;40.90
37232;DHT22;23125;48.156;15.954;2023-06-22T12:35:26;34.70;41.00
37232;DHT22;23125;48.156;15.954;2023-06-22T12:37:52;34.80;41.10
37232;DHT22;23125;48.156;15.954;2023-06-22T12:40:18;34.80;41.00
37232;DHT22;23125;48.156;15.954;2023-06-22T12:42:45;34.70;41.60
37232;DHT22;23125;48.156;15.954;2023-06-22T12:45:11;34.70;41.20
37232;DHT22;23125;48.156;15.954;2023-06-22T12:47:37;34.70;41.20
37232;DHT22;23125;48.156;15.954;2023-06-22T12:50:03;34.70;41.20
37232;DHT22;23125;48.156;15.954;2023-06-22T12:52:30;34.60;41.20
37232;DHT22;23125;48.156;15.954;2023-06-22T12:54:59;34.60;41.50
37232;DHT22;23125;48.156;15.954;2023-06-22T12:57:25;34.60;41.60
37232;DHT22;23125;48.156;15.954;2023-06-22T12:59:51;34.50;41.70
37232;DHT22;23125;48.156;15.954;2023-06-22T13:02:17;34.50;41.70
37232;DHT22;23125;48.156;15.954;2023-06-22T13:04:42;34.50;41.70
37232;DHT22;23125;48.156;15.954;2023-06-22T13:07:09;34.40;41.60
37232;DHT22;23125;48.156;15.954;2023-06-22T13:09:36;34.40;41.80
37232;DHT22;23125;48.156;15.954;2023-06-22T13:12:02;34.40;42.30
37232;DHT22;23125;48.156;15.954;2023-06-22T13:14:28;34.40;42.40
37232;DHT22;23125;48.156;15.954;2023-06-22T13:16:54;34.40;42.40
37232;DHT22;23125;48.156;15.954;2023-06-22T13:19:20;34.40;42.50
37232;DHT22;23125;48.156;15.954;2023-06-22T13:21:46;34.40;42.40
37232;DHT22;23125;48.156;15.954;2023-06-22T13:24:12;34.30;42.40
37232;DHT22;23125;48.156;15.954;2023-06-22T13:26:38;34.30;42.60
37232;DHT22;23125;48.156;15.954;2023-06-22T13:29:04;34.30;42.60
37232;DHT22;23125;48.156;15.954;2023-06-22T13:31:30;34.30;42.70
37232;DHT22;23125;48.156;15.954;2023-06-22T13:33:56;34.30;42.90
37232;DHT22;23125;48.156;15.954;2023-06-22T13:36:21;34.20;42.80
37232;DHT22;23125;48.156;15.954;2023-06-22T13:38:49;34.20;43.00
37232;DHT22;23125;48.156;15.954;2023-06-22T13:41:15;34.20;43.10
37232;DHT22;23125;48.156;15.954;2023-06-22T13:43:40;34.10;43.00
37232;DHT22;23125;48.156;15.954;2023-06-22T13:46:06;34.20;43.30
37232;DHT22;23125;48.156;15.954;2023-06-22T13:48:32;34.10;43.40
37232;DHT22;23125;48.156;15.954;2023-06-22T13:50:58;34.10;43.40
37232;DHT22;23125;48.156;15.954;2023-06-22T13:53:25;34.10;43.60
37232;DHT22;23125;48.156;15.954;2023-06-22T13:55:51;34.20;43.50
37232;DHT22;23125;48.156;15.954;2023-06-22T13:58:17;34.10;43.40
37232;DHT22;23125;48.156;15.954;2023-06-22T14:00:45;34.10;43.60
37232;DHT22;23125;48.156;15.954;2023-06-22T14:03:11;34.20;43.60
37232;DHT22;23125;48.156;15.954;2023-06-22T14:05:37;34.10;43.60
37232;DHT22;23125;48.156;15.954;2023-06-22T14:08:03;34.10;43.60
37232;DHT22;23125;48.156;15.954;2023-06-22T14:10:28;34.10;43.80
37232;DHT22;23125;48.156;15.954;2023-06-22T14:12:54;34.10;43.90
37232;DHT22;23125;48.156;15.954;2023-06-22T14:15:20;34.10;44.00
37232;DHT22;23125;48.156;15.954;2023-06-22T14:17:46;34.10;44.00
37232;DHT22;23125;48.156;15.954;2023-06-22T14:20:12;34.10;44.10
37232;DHT22;23125;48.156;15.954;2023-06-22T14:22:38;34.10;44.10
37232;DHT22;23125;48.156;15.954;2023-06-22T14:25:05;34.10;44.10
37232;DHT22;23125;48.156;15.954;2023-06-22T14:27:31;34.10;44.30
37232;DHT22;23125;48.156;15.954;2023-06-22T14:29:57;34.20;44.50
37232;DHT22;23125;48.156;15.954;2023-06-22T14:32:23;34.20;44.50
37232;DHT22;23125;48.156;15.954;2023-06-22T14:34:49;34.20;44.60
37232;DHT22;23125;48.156;15.954;2023-06-22T14:37:15;34.20;44.70
37232;DHT22;23125;48.156;15.954;2023-06-22T14:39:41;34.20;44.80
37232;DHT22;23125;48.156;15.954;2023-06-22T14:42:08;34.30;45.50
37232;DHT22;23125;48.156;15.954;2023-06-22T14:44:34;34.40;45.30
37232;DHT22;23125;48.156;15.954;2023-06-22T14:47:00;34.40;45.10
37232;DHT22;23125;48.156;15.954;2023-06-22T14:49:26;34.50;45.20
37232;DHT22;23125;48.156;15.954;2023-06-22T14:51:52;34.60;45.00
37232;DHT22;23125;48.156;15.954;2023-06-22T14:54:18;34.70;44.90
37232;DHT22;23125;48.156;15.954;2023-06-22T14:56:44;34.70;44.60
37232;DHT22;23125;48.156;15.954;2023-06-22T14:59:10;34.70;44.50
37232;DHT22;23125;48.156;15.954;2023-06-22T15:01:36;34.60;44.40
37232;DHT22;23125;48.156;15.954;2023-06-22T15:04:02;34.60;44.50
37232;DHT22;23125;48.156;15.954;2023-06-22T15:06:28;34.50;44.30
37232;DHT22;23125;48.156;15.954;2023-06-22T15:08:54;34.50;44.30
37232;DHT22;23125;48.156;15.954;2023-06-22T15:11:20;34.40;44.40
37232;DHT22;23125;48.156;15.954;2023-06-22T15:13:46;34.30;44.40
37232;DHT22;23125;48.156;15.954;2023-06-22T15:16:12;34.30;44.60
37232;DHT22;23125;48.156;15.954;2023-06-22T15:18:38;34.20;44.80
37232;DHT22;23125;48.156;15.954;2023-06-22T15:21:06;34.20;44.80